createdAt,value
2017-12-05T00:01:58.142Z,6.10
2017-12-05T00:04:26.396Z,5.72
2017-12-05T00:06:53.920Z,6.62
2017-12-05T00:09:21.343Z,6.75
2017-12-05T00:11:48.827Z,6.70
2017-12-05T00:14:16.273Z,6.60
2017-12-05T00:16:44.493Z,6.50
2017-12-05T00:19:11.950Z,6.50
2017-12-05T00:21:39.407Z,7.40
2017-12-05T00:24:06.944Z,6.75
2017-12-05T00:26:34.362Z,7.30
2017-12-05T00:29:02.698Z,6.72
2017-12-05T00:31:30.142Z,8.10
2017-12-05T00:33:57.613Z,9.02
2017-12-05T00:36:25.051Z,8.23
2017-12-05T00:38:52.598Z,9.10
2017-12-05T00:41:20.019Z,8.20
2017-12-05T00:43:48.243Z,8.07
2017-12-05T00:46:15.710Z,7.60
2017-12-05T00:48:43.261Z,7.87
2017-12-05T00:51:10.709Z,7.35
2017-12-05T00:53:38.143Z,7.70
2017-12-05T00:56:05.583Z,7.20
2017-12-05T00:58:33.027Z,7.85
2017-12-05T01:01:01.267Z,8.20
2017-12-05T01:03:28.825Z,7.75
2017-12-05T01:05:56.262Z,7.50
2017-12-05T01:08:23.744Z,6.90
2017-12-05T01:10:51.198Z,6.82
2017-12-05T01:13:18.623Z,5.93
2017-12-05T01:15:46.106Z,5.90
2017-12-05T01:18:13.565Z,6.03
2017-12-05T01:20:41.019Z,5.10
2017-12-05T01:23:08.446Z,5.50
2017-12-05T01:25:35.887Z,5.70
2017-12-05T01:28:03.334Z,5.12
2017-12-05T01:30:31.540Z,4.63
2017-12-05T01:32:59.042Z,5.10
2017-12-05T01:35:26.490Z,4.65
2017-12-05T01:37:53.917Z,4.87
2017-12-05T01:40:21.394Z,5.50
2017-12-05T01:42:48.820Z,5.10
2017-12-05T01:45:16.298Z,4.90
2017-12-05T01:47:43.755Z,4.78
2017-12-05T01:50:11.187Z,5.50
2017-12-05T01:52:38.614Z,5.12
2017-12-05T01:55:06.919Z,5.28
2017-12-05T01:57:34.347Z,5.80
2017-12-05T02:00:02.573Z,6.18
2017-12-05T02:02:30.038Z,5.72
2017-12-05T02:04:57.474Z,5.07
2017-12-05T02:07:24.930Z,6.22
2017-12-05T02:09:52.362Z,5.57
2017-12-05T02:12:19.799Z,5.20
2017-12-05T02:14:47.996Z,5.65
2017-12-05T02:17:15.431Z,6.00
2017-12-05T02:19:43.662Z,4.68
2017-12-05T02:22:12.118Z,4.82
2017-12-05T02:24:39.567Z,4.97
2017-12-05T02:27:07.021Z,4.70
2017-12-05T02:29:34.450Z,4.62
2017-12-05T02:32:02.646Z,4.60
2017-12-05T02:34:30.082Z,4.03
2017-12-05T02:36:58.274Z,4.45
2017-12-05T02:39:25.714Z,4.53
2017-12-05T02:41:53.915Z,3.70
2017-12-05T02:44:21.366Z,3.80
2017-12-05T02:46:48.842Z,3.40
2017-12-05T02:49:16.286Z,3.40
2017-12-05T02:51:43.739Z,3.70
2017-12-05T02:54:11.210Z,2.95
2017-12-05T02:56:38.642Z,3.25
2017-12-05T02:59:06.092Z,3.70
2017-12-05T03:01:33.519Z,4.20
2017-12-05T03:04:01.754Z,3.72
2017-12-05T03:06:29.210Z,4.00
2017-12-05T03:08:56.680Z,3.85
2017-12-05T03:11:24.131Z,4.30
2017-12-05T03:13:51.578Z,3.30
2017-12-05T03:16:19.014Z,3.72
2017-12-05T03:18:46.508Z,3.58
2017-12-05T03:21:13.957Z,3.22
2017-12-05T03:23:41.419Z,3.08
2017-12-05T03:26:08.873Z,3.47
2017-12-05T03:28:36.302Z,3.33
2017-12-05T03:31:03.758Z,3.12
2017-12-05T03:33:31.184Z,3.90
2017-12-05T03:35:59.397Z,4.37
2017-12-05T03:38:26.846Z,4.50
2017-12-05T03:40:54.281Z,5.30
2017-12-05T03:43:21.779Z,5.35
2017-12-05T03:45:49.221Z,5.07
2017-12-05T03:48:16.700Z,5.10
2017-12-05T03:50:44.138Z,5.47
2017-12-05T03:53:11.618Z,5.50
2017-12-05T03:55:39.070Z,5.00
2017-12-05T03:58:06.508Z,5.00
2017-12-05T04:00:33.966Z,4.80
2017-12-05T04:03:01.394Z,4.57
2017-12-05T04:05:28.831Z,3.85
2017-12-05T04:07:57.070Z,4.28
2017-12-05T04:10:24.530Z,4.80
2017-12-05T04:12:51.984Z,3.70
2017-12-05T04:15:19.441Z,4.35
2017-12-05T04:17:46.886Z,3.53
2017-12-05T04:20:14.321Z,3.60
2017-12-05T04:22:41.746Z,3.40
2017-12-05T04:25:09.988Z,3.90
2017-12-05T04:27:37.431Z,3.10
2017-12-05T04:30:04.890Z,3.30
2017-12-05T04:32:32.370Z,3.20
2017-12-05T04:35:00.571Z,2.80
2017-12-05T04:37:28.762Z,2.95
2017-12-05T04:39:56.207Z,2.60
2017-12-05T04:42:23.654Z,2.30
2017-12-05T04:44:51.860Z,2.60
2017-12-05T04:47:19.304Z,2.10
2017-12-05T04:49:46.808Z,2.03
2017-12-05T04:52:14.242Z,1.60
2017-12-05T04:54:41.679Z,2.50
2017-12-05T04:57:09.114Z,1.90
2017-12-05T04:59:37.308Z,2.10
2017-12-05T05:02:04.743Z,2.50
2017-12-05T05:04:32.939Z,2.60
2017-12-05T05:07:00.366Z,2.67
2017-12-05T05:09:28.575Z,2.50
2017-12-05T05:11:55.998Z,2.87
2017-12-05T05:14:24.196Z,3.63
2017-12-05T05:16:51.666Z,5.18
2017-12-05T05:19:19.122Z,3.28
2017-12-05T05:21:46.566Z,4.10
2017-12-05T05:24:13.998Z,3.90
2017-12-05T05:26:42.199Z,4.00
2017-12-05T05:29:09.634Z,4.10
2017-12-05T05:31:37.066Z,5.40
2017-12-05T05:34:05.306Z,4.60
2017-12-05T05:36:32.750Z,4.90
2017-12-05T05:39:00.195Z,4.70
2017-12-05T05:41:27.642Z,5.40
2017-12-05T05:43:55.104Z,4.93
2017-12-05T05:46:22.545Z,4.50
2017-12-05T05:48:50.024Z,4.33
2017-12-05T05:51:17.446Z,4.47
2017-12-05T05:53:45.651Z,4.20
2017-12-05T05:56:13.107Z,3.60
2017-12-05T05:58:40.533Z,4.00
2017-12-05T06:01:08.778Z,3.60
2017-12-05T06:03:36.215Z,3.75
2017-12-05T06:06:03.655Z,4.10
2017-12-05T06:08:31.138Z,4.25
2017-12-05T06:10:58.579Z,4.00
2017-12-05T06:13:26.013Z,4.20
2017-12-05T06:15:53.502Z,4.40
2017-12-05T06:18:20.930Z,4.50
2017-12-05T06:20:48.390Z,5.35
2017-12-05T06:23:15.822Z,5.00
2017-12-05T06:25:43.259Z,6.10
2017-12-05T06:28:10.742Z,5.70
2017-12-05T06:30:38.420Z,6.43
2017-12-05T06:33:05.858Z,6.10
2017-12-05T06:35:33.291Z,6.37
2017-12-05T06:38:01.538Z,6.20
2017-12-05T06:40:28.982Z,6.30
2017-12-05T06:42:56.520Z,6.40
2017-12-05T06:45:24.079Z,6.90
2017-12-05T06:47:51.545Z,6.45
2017-12-05T06:50:19.722Z,6.40
2017-12-05T06:52:47.218Z,6.35
2017-12-05T06:55:14.642Z,5.90
2017-12-05T06:57:42.105Z,7.07
2017-12-05T07:00:09.793Z,5.93
2017-12-05T07:02:37.319Z,6.12
2017-12-05T07:05:04.788Z,6.25
2017-12-05T07:07:32.232Z,5.93
2017-12-05T07:09:59.703Z,5.60
2017-12-05T07:12:27.155Z,5.68
2017-12-05T07:14:54.592Z,5.43
2017-12-05T07:17:22.036Z,6.30
2017-12-05T07:19:49.521Z,6.18
2017-12-05T07:22:16.958Z,6.45
2017-12-05T07:24:44.435Z,6.43
2017-12-05T07:27:11.874Z,7.03
2017-12-05T07:29:39.343Z,6.65
2017-12-05T07:32:06.794Z,7.20
2017-12-05T07:34:34.256Z,7.32
2017-12-05T07:37:01.683Z,8.35
2017-12-05T07:39:29.163Z,8.60
2017-12-05T07:41:56.629Z,8.05
2017-12-05T07:44:24.076Z,8.40
2017-12-05T07:46:51.633Z,9.27
2017-12-05T07:49:19.106Z,9.10
2017-12-05T07:51:46.552Z,8.43
2017-12-05T07:54:14.027Z,8.60
2017-12-05T07:56:41.480Z,8.35
2017-12-05T07:59:08.922Z,8.63
2017-12-05T08:01:36.357Z,9.15
2017-12-05T08:04:03.799Z,9.65
2017-12-05T08:06:31.297Z,10.17
2017-12-05T08:08:58.730Z,9.50
2017-12-05T08:11:26.163Z,10.25
2017-12-05T08:13:54.384Z,10.35
2017-12-05T08:16:21.827Z,8.70
2017-12-05T08:18:49.261Z,9.00
2017-12-05T08:21:16.690Z,8.70
2017-12-05T08:23:44.147Z,8.07
2017-12-05T08:26:12.392Z,8.20
2017-12-05T08:28:39.830Z,9.43
2017-12-05T08:31:07.266Z,8.85
2017-12-05T08:33:34.694Z,9.10
2017-12-05T08:36:02.937Z,9.63
2017-12-05T08:38:30.397Z,9.10
2017-12-05T08:40:57.829Z,8.23
2017-12-05T08:43:25.380Z,9.57
2017-12-05T08:45:52.819Z,9.45
2017-12-05T08:48:20.246Z,9.17
2017-12-05T08:50:48.450Z,8.50
2017-12-05T08:53:15.879Z,8.48
2017-12-05T08:55:44.075Z,8.10
2017-12-05T08:58:11.502Z,8.32
2017-12-05T09:00:39.702Z,7.60
2017-12-05T09:03:07.198Z,7.80
2017-12-05T09:05:34.639Z,6.93
2017-12-05T09:08:02.092Z,8.10
2017-12-05T09:10:29.531Z,7.63
2017-12-05T09:12:56.958Z,7.90
2017-12-05T09:15:24.394Z,9.05
2017-12-05T09:17:52.664Z,9.05
2017-12-05T09:20:20.114Z,8.23
2017-12-05T09:22:47.539Z,7.13
2017-12-05T09:25:14.997Z,7.47
2017-12-05T09:27:43.299Z,8.10
2017-12-05T09:30:11.564Z,8.98
2017-12-05T09:32:38.999Z,8.77
2017-12-05T09:35:06.451Z,9.17
2017-12-05T09:37:34.024Z,9.60
2017-12-05T09:40:01.475Z,10.25
2017-12-05T09:42:28.929Z,10.10
2017-12-05T09:44:56.361Z,10.80
2017-12-05T09:47:23.812Z,9.90
2017-12-05T09:49:52.006Z,10.20
2017-12-05T09:52:19.451Z,10.30
2017-12-05T09:54:46.909Z,10.52
2017-12-05T09:57:15.106Z,9.70
2017-12-05T09:59:42.544Z,10.38
2017-12-05T10:02:10.206Z,10.43
2017-12-05T10:04:37.679Z,10.20
2017-12-05T10:07:05.097Z,10.53
2017-12-05T10:09:33.294Z,10.57
2017-12-05T10:12:00.799Z,10.30
2017-12-05T10:14:29.076Z,10.60
2017-12-05T10:16:56.518Z,9.87
2017-12-05T10:19:23.970Z,9.88
2017-12-05T10:21:51.431Z,9.68
2017-12-05T10:24:18.858Z,9.70
2017-12-05T10:26:46.356Z,9.18
2017-12-05T10:29:13.787Z,8.93
2017-12-05T10:31:41.243Z,10.18
2017-12-05T10:34:08.718Z,9.77
2017-12-05T10:36:36.163Z,10.43
2017-12-05T10:39:03.600Z,9.70
2017-12-05T10:41:31.026Z,9.10
2017-12-05T10:43:58.463Z,9.52
2017-12-05T10:46:26.073Z,9.50
2017-12-05T10:48:53.507Z,9.13
2017-12-05T10:51:21.118Z,9.82
2017-12-05T10:53:48.553Z,8.95
2017-12-05T10:56:16.009Z,9.35
2017-12-05T10:58:43.487Z,10.27
2017-12-05T11:01:10.940Z,9.33
2017-12-05T11:03:38.387Z,9.63
2017-12-05T11:06:05.842Z,9.90
2017-12-05T11:08:33.306Z,9.63
2017-12-05T11:11:00.752Z,10.50
2017-12-05T11:13:28.194Z,10.85
2017-12-05T11:15:55.671Z,12.05
2017-12-05T11:18:23.129Z,11.10
2017-12-05T11:20:50.543Z,11.10
2017-12-05T11:23:17.974Z,11.80
2017-12-05T11:25:45.426Z,11.77
2017-12-05T11:28:12.870Z,11.45
2017-12-05T11:30:40.335Z,10.35
2017-12-05T11:33:07.804Z,9.90
2017-12-05T11:35:36.082Z,9.98
2017-12-05T11:38:04.283Z,9.60
2017-12-05T11:40:31.784Z,9.45
2017-12-05T11:42:59.233Z,9.55
2017-12-05T11:45:26.692Z,9.50
2017-12-05T11:47:54.321Z,9.93
2017-12-05T11:50:21.731Z,9.20
2017-12-05T11:52:49.377Z,9.20
2017-12-05T11:55:16.798Z,9.38
2017-12-05T11:57:44.239Z,9.45
2017-12-05T12:00:11.671Z,9.07
2017-12-05T12:02:39.114Z,9.13
2017-12-05T12:05:06.556Z,8.00
2017-12-05T12:07:34.040Z,7.90
2017-12-05T12:10:01.478Z,8.80
2017-12-05T12:12:28.915Z,8.43
2017-12-05T12:14:56.366Z,8.70
2017-12-05T12:17:23.804Z,8.10
2017-12-05T12:19:51.265Z,9.00
2017-12-05T12:22:18.682Z,9.25
2017-12-05T12:24:46.912Z,7.82
2017-12-05T12:27:14.342Z,7.97
2017-12-05T12:29:41.782Z,8.50
2017-12-05T12:32:09.271Z,7.23
2017-12-05T12:34:36.734Z,8.00
2017-12-05T12:37:04.174Z,7.57
2017-12-05T12:39:31.605Z,7.30
2017-12-05T12:41:59.091Z,6.82
2017-12-05T12:44:26.529Z,7.18
2017-12-05T12:46:54.011Z,5.68
2017-12-05T12:49:21.451Z,5.80
2017-12-05T12:51:48.922Z,6.00
2017-12-05T12:54:16.351Z,5.47
2017-12-05T12:56:43.802Z,5.28
2017-12-05T12:59:11.298Z,4.80
2017-12-05T13:01:38.857Z,5.12
2017-12-05T13:04:06.287Z,4.80
2017-12-05T13:06:33.734Z,4.50
2017-12-05T13:09:01.182Z,3.95
2017-12-05T13:11:28.636Z,3.55
2017-12-05T13:13:56.086Z,4.18
2017-12-05T13:16:24.297Z,3.20
2017-12-05T13:18:51.742Z,3.33
2017-12-05T13:21:19.182Z,3.60
2017-12-05T13:23:46.618Z,3.40
2017-12-05T13:26:14.131Z,3.20
2017-12-05T13:28:41.570Z,3.70
2017-12-05T13:31:09.011Z,4.10
2017-12-05T13:33:36.495Z,4.15
2017-12-05T13:36:03.927Z,3.50
2017-12-05T13:38:31.384Z,4.28
2017-12-05T13:40:58.874Z,3.53
2017-12-05T13:43:26.407Z,3.80
2017-12-05T13:45:53.914Z,3.97
2017-12-05T13:48:21.335Z,4.40
2017-12-05T13:50:48.773Z,4.20
2017-12-05T13:53:16.358Z,3.90
2017-12-05T13:55:43.826Z,4.10
2017-12-05T13:58:11.283Z,5.03
2017-12-05T14:00:38.719Z,4.80
2017-12-05T14:03:06.146Z,4.30
2017-12-05T14:05:34.496Z,4.20
2017-12-05T14:08:02.679Z,4.30
2017-12-05T14:10:30.119Z,4.50
2017-12-05T14:12:57.556Z,4.62
2017-12-05T14:15:25.803Z,4.90
2017-12-05T14:17:53.247Z,4.40
2017-12-05T14:20:20.679Z,4.15
2017-12-05T14:22:48.739Z,4.87
2017-12-05T14:25:16.257Z,4.60
2017-12-05T14:27:43.686Z,4.45
2017-12-05T14:30:11.306Z,5.37
2017-12-05T14:32:39.651Z,4.40
2017-12-05T14:35:07.109Z,4.40
2017-12-05T14:37:34.548Z,4.53
2017-12-05T14:40:02.017Z,4.80
2017-12-05T14:42:29.475Z,4.30
2017-12-05T14:44:56.915Z,4.57
2017-12-05T14:47:24.390Z,5.05
2017-12-05T14:49:51.803Z,4.80
2017-12-05T14:52:19.292Z,4.37
2017-12-05T14:54:46.764Z,4.70
2017-12-05T14:57:14.325Z,5.37
2017-12-05T14:59:41.886Z,5.28
2017-12-05T15:02:09.324Z,5.00
2017-12-05T15:04:36.746Z,5.40
2017-12-05T15:07:04.182Z,5.30
2017-12-05T15:09:31.802Z,4.97
2017-12-05T15:11:59.251Z,4.75
2017-12-05T15:14:26.678Z,5.00
2017-12-05T15:16:54.126Z,4.53
2017-12-05T15:19:21.574Z,4.55
2017-12-05T15:21:49.055Z,4.50
2017-12-05T15:24:16.486Z,4.20
2017-12-05T15:26:43.921Z,3.60
2017-12-05T15:29:12.271Z,4.00
2017-12-05T15:31:39.863Z,3.97
2017-12-05T15:34:07.286Z,4.20
2017-12-05T15:36:34.730Z,3.50
2017-12-05T15:39:02.186Z,4.25
2017-12-05T15:41:29.628Z,4.60
2017-12-05T15:43:57.066Z,4.60
2017-12-05T15:46:24.507Z,3.97
2017-12-05T15:48:52.756Z,4.37
2017-12-05T15:51:20.204Z,4.90
2017-12-05T15:53:47.659Z,4.57
2017-12-05T15:56:15.087Z,4.40
2017-12-05T15:58:42.522Z,4.70
2017-12-05T16:01:09.996Z,4.40
2017-12-05T16:03:37.439Z,5.60
2017-12-05T16:06:04.879Z,5.10
2017-12-05T16:08:33.095Z,4.37
2017-12-05T16:11:00.524Z,5.63
2017-12-05T16:13:27.967Z,4.70
2017-12-05T16:15:55.574Z,5.12
2017-12-05T16:18:23.006Z,5.30
2017-12-05T16:20:50.439Z,5.35
2017-12-05T16:23:18.643Z,5.18
2017-12-05T16:25:46.087Z,4.50
2017-12-05T16:28:13.540Z,5.10
2017-12-05T16:30:41.022Z,5.40
2017-12-05T16:33:08.470Z,4.60
2017-12-05T16:35:35.911Z,4.70
2017-12-05T16:38:03.367Z,5.53
2017-12-05T16:40:30.934Z,4.90
2017-12-05T16:42:58.386Z,4.82
2017-12-05T16:45:25.948Z,4.97
2017-12-05T16:47:53.358Z,5.40
2017-12-05T16:50:21.574Z,5.68
2017-12-05T16:52:49.056Z,6.70
2017-12-05T16:55:17.211Z,5.22
2017-12-05T16:57:44.662Z,5.30
2017-12-05T17:00:12.267Z,5.62
2017-12-05T17:02:39.702Z,6.07
2017-12-05T17:05:07.142Z,5.40
2017-12-05T17:07:34.566Z,5.40
2017-12-05T17:10:02.075Z,6.25
2017-12-05T17:12:29.524Z,6.10
2017-12-05T17:14:56.997Z,6.80
2017-12-05T17:17:24.440Z,7.60
2017-12-05T17:19:51.903Z,7.90
2017-12-05T17:22:19.344Z,8.00
2017-12-05T17:24:46.887Z,8.50
2017-12-05T17:27:14.303Z,9.40
2017-12-05T17:29:42.547Z,9.50
2017-12-05T17:32:10.009Z,10.15
2017-12-05T17:34:37.452Z,10.43
2017-12-05T17:37:04.913Z,10.82
2017-12-05T17:39:32.547Z,11.90
2017-12-05T17:41:59.956Z,10.90
2017-12-05T17:44:28.202Z,11.30
2017-12-05T17:46:55.655Z,12.13
2017-12-05T17:49:23.205Z,11.00
2017-12-05T17:51:50.646Z,11.00
2017-12-05T17:54:18.079Z,11.77
2017-12-05T17:56:46.323Z,11.55
2017-12-05T17:59:14.124Z,12.20
2017-12-05T18:01:41.571Z,11.93
2017-12-05T18:04:09.022Z,11.07
2017-12-05T18:06:37.976Z,11.20
2017-12-05T18:09:05.452Z,12.10
2017-12-05T18:11:33.061Z,10.60
2017-12-05T18:14:00.472Z,10.27
2017-12-05T18:16:28.682Z,9.30
2017-12-05T18:18:56.116Z,8.77
2017-12-05T18:21:24.317Z,8.00
2017-12-05T18:23:51.796Z,8.65
2017-12-05T18:26:19.246Z,7.53
2017-12-05T18:28:46.712Z,6.85
2017-12-05T18:31:14.247Z,6.32
2017-12-05T18:33:41.675Z,6.20
2017-12-05T18:36:09.116Z,5.47
2017-12-05T18:38:36.542Z,5.43
2017-12-05T18:41:03.974Z,5.07
2017-12-05T18:43:31.413Z,4.72
2017-12-05T18:45:59.714Z,4.10
2017-12-05T18:48:27.130Z,4.30
2017-12-05T18:50:54.572Z,4.30
2017-12-05T18:53:21.993Z,4.00
2017-12-05T18:55:49.538Z,4.40
2017-12-05T18:58:16.958Z,3.90
2017-12-05T19:00:45.166Z,4.45
2017-12-05T19:03:12.606Z,4.10
2017-12-05T19:05:40.054Z,4.90
2017-12-05T19:08:08.242Z,4.50
2017-12-05T19:10:35.694Z,5.80
2017-12-05T19:13:03.140Z,7.57
2017-12-05T19:15:30.646Z,6.20
2017-12-05T19:17:58.121Z,6.60
2017-12-05T19:20:25.510Z,6.57
2017-12-05T19:22:52.975Z,6.95
2017-12-05T19:25:21.180Z,6.90
2017-12-05T19:27:48.614Z,6.40
2017-12-05T19:30:16.060Z,6.25
2017-12-05T19:32:44.459Z,6.80
2017-12-05T19:35:11.892Z,7.12
2017-12-05T19:37:39.323Z,7.07
2017-12-05T19:40:06.838Z,7.60
2017-12-05T19:42:34.279Z,7.90
2017-12-05T19:45:01.727Z,8.52
2017-12-05T19:47:29.216Z,9.02
2017-12-05T19:49:56.648Z,9.07
2017-12-05T19:52:24.130Z,9.37
2017-12-05T19:54:51.600Z,9.30
2017-12-05T19:57:19.026Z,10.35
2017-12-05T19:59:46.561Z,9.73
2017-12-05T20:02:13.970Z,9.80
2017-12-05T20:04:41.407Z,9.68
2017-12-05T20:07:08.864Z,9.40
2017-12-05T20:09:37.070Z,8.95
2017-12-05T20:12:04.499Z,8.80
2017-12-05T20:14:31.970Z,8.60
2017-12-05T20:16:59.390Z,9.43
2017-12-05T20:19:27.625Z,8.75
2017-12-05T20:21:55.109Z,8.70
2017-12-05T20:24:22.656Z,8.45
2017-12-05T20:26:50.231Z,8.68
2017-12-05T20:29:17.758Z,8.90
2017-12-05T20:31:45.205Z,7.78
2017-12-05T20:34:13.389Z,7.67
2017-12-05T20:36:40.811Z,6.82
2017-12-05T20:39:08.290Z,6.40
2017-12-05T20:41:35.724Z,6.12
2017-12-05T20:44:03.180Z,5.65
2017-12-05T20:46:30.670Z,6.50
2017-12-05T20:48:58.095Z,6.40
2017-12-05T20:51:25.531Z,6.23
2017-12-05T20:53:53.731Z,6.47
2017-12-05T20:56:21.212Z,7.30
2017-12-05T20:58:48.647Z,7.68
2017-12-05T21:01:16.087Z,7.55
2017-12-05T21:03:43.890Z,8.30
2017-12-05T21:06:11.332Z,8.45
2017-12-05T21:08:38.792Z,9.20
2017-12-05T21:11:06.280Z,10.13
2017-12-05T21:13:33.892Z,10.88
2017-12-05T21:16:01.336Z,11.05
2017-12-05T21:18:28.843Z,10.85
2017-12-05T21:20:56.287Z,11.77
2017-12-05T21:23:23.851Z,10.50
2017-12-05T21:25:51.302Z,11.60
2017-12-05T21:28:18.743Z,11.50
2017-12-05T21:30:46.217Z,11.07
2017-12-05T21:33:13.667Z,10.27
2017-12-05T21:35:41.239Z,10.43
2017-12-05T21:38:08.691Z,10.63
2017-12-05T21:40:36.217Z,9.93
2017-12-05T21:43:04.670Z,10.00
2017-12-05T21:45:32.111Z,9.90
2017-12-05T21:47:59.614Z,10.93
2017-12-05T21:50:27.098Z,10.60
2017-12-05T21:52:54.653Z,10.40
2017-12-05T21:55:22.115Z,10.20
2017-12-05T21:57:49.562Z,11.80
2017-12-05T22:00:17.027Z,10.20
2017-12-05T22:02:44.578Z,11.57
2017-12-05T22:05:12.142Z,11.23
2017-12-05T22:07:39.714Z,11.23
2017-12-05T22:10:07.243Z,12.20
2017-12-05T22:12:34.702Z,12.77
2017-12-05T22:15:02.160Z,14.20
2017-12-05T22:17:29.622Z,13.70
2017-12-05T22:19:57.073Z,14.25
2017-12-05T22:22:24.553Z,14.55
2017-12-05T22:24:52.002Z,14.13
2017-12-05T22:27:19.452Z,15.75
2017-12-05T22:29:46.915Z,14.30
2017-12-05T22:32:14.388Z,15.98
2017-12-05T22:34:41.846Z,15.20
2017-12-05T22:37:10.214Z,16.45
2017-12-05T22:39:37.670Z,15.87
2017-12-05T22:42:05.184Z,16.17
2017-12-05T22:44:32.615Z,16.48
2017-12-05T22:47:00.051Z,16.50
2017-12-05T22:49:28.307Z,17.30
2017-12-05T22:51:55.873Z,16.83
2017-12-05T22:54:23.326Z,16.77
2017-12-05T22:56:50.885Z,17.77
2017-12-05T22:59:18.443Z,17.58
2017-12-05T23:01:46.003Z,18.48
2017-12-05T23:04:13.438Z,18.55
2017-12-05T23:06:40.883Z,20.00
2017-12-05T23:09:08.339Z,19.87
2017-12-05T23:11:35.803Z,21.37
2017-12-05T23:14:03.239Z,21.57
2017-12-05T23:16:30.685Z,21.55
2017-12-05T23:18:58.132Z,22.30
2017-12-05T23:21:25.574Z,23.67
2017-12-05T23:23:53.054Z,23.83
2017-12-05T23:26:20.513Z,23.33
2017-12-05T23:28:47.970Z,25.12
2017-12-05T23:31:15.436Z,23.05
2017-12-05T23:33:42.862Z,23.75
2017-12-05T23:36:10.308Z,24.53
2017-12-05T23:38:38.518Z,25.60
2017-12-05T23:41:05.958Z,24.58
2017-12-05T23:43:33.398Z,25.95
2017-12-05T23:46:01.623Z,25.67
2017-12-05T23:48:29.086Z,26.17
2017-12-05T23:50:56.538Z,26.30
2017-12-05T23:53:23.983Z,25.40
2017-12-05T23:55:51.426Z,25.05
2017-12-05T23:58:18.910Z,25.23
